MDT,Max TemperatureF,Mean TemperatureF,Min TemperatureF,Max Dew PointF,MeanDew PointF,Min DewpointF,Max Humidity, Mean Humidity, Min Humidity, Max Sea Level PressureIn, Mean Sea Level PressureIn, Min Sea Level PressureIn, Max VisibilityMiles, Mean VisibilityMiles, Min VisibilityMiles, Max Wind SpeedMPH, Mean Wind SpeedMPH, Max Gust SpeedMPH,PrecipitationIn, CloudCover, Events, WindDirDegrees
2011-10-1,,,,,,,,,,,,,,,,,,,0.00,,Thunderstorm,-1
2011-10-2,,,,,,,,,,,,,,,,,,,0.00,,,-1
2011-10-3,,,,,,,,,,,,,,,,,,,0.00,,Thunderstorm,-1
2011-10-4,,,,,,,,,,,,,,,,,,,0.00,,,-1
2011-10-5,,,,,,,,,,,,,,,,,,,0.00,,,-1
2011-10-6,,,,,,,,,,,,,,,,,,,0.00,,,-1
2011-10-7,50,46,41,39,37,36,87,73,58,30.04,30.02,30.01,10,9,6,14,10,16,0.00,8,,288
2011-10-8,46,39,32,32,29,27,93,73,49,30.17,30.08,29.96,10,9,1,16,7,,0.06,5,,200
2011-10-9,53,42,32,34,31,28,87,68,38,30.25,30.20,30.15,10,10,10,13,5,21,0.00,6,,315
2011-10-10,60,45,30,34,30,27,93,65,34,30.23,30.18,30.11,10,10,10,13,3,18,0.00,2,,258
2011-10-11,66,49,32,34,30,28,87,55,26,30.13,30.08,30.00,10,10,10,18,6,29,0.00,1,,301
2011-10-12,66,48,30,32,28,25,86,51,21,30.26,30.22,30.15,10,10,10,15,4,21,0.00,0,,18
2011-10-13,69,50,30,30,27,25,86,53,20,30.31,30.26,30.14,10,10,10,12,5,17,0.00,0,,347
2011-10-14,69,50,32,32,28,25,75,46,20,30.30,30.24,30.20,10,10,10,14,5,20,0.00,0,,345
2011-10-15,75,54,33,32,26,21,75,41,13,30.39,30.32,30.26,10,10,10,12,6,20,0.00,0,,356
2011-10-16,75,54,33,32,25,19,70,38,13,30.35,30.29,30.21,10,10,10,20,6,26,0.00,0,,326
2011-10-17,64,50,35,36,23,18,60,43,22,30.29,30.18,30.12,10,10,10,29,9,41,0.00,0,,359
2011-10-18,60,43,26,23,19,12,69,42,19,30.41,30.33,30.28,10,10,10,15,5,22,0.00,0,,27
2011-10-19,62,44,26,28,23,19,75,47,20,30.35,30.27,30.15,10,10,10,14,4,16,0.00,0,,276
2011-10-20,68,48,28,25,19,10,64,38,14,30.27,30.21,30.17,10,10,10,16,4,18,0.00,0,,278
2011-10-21,66,47,28,23,18,1,59,34,17,30.39,30.33,30.26,10,10,10,13,5,16,0.00,0,,331
2011-10-22,66,47,28,25,20,16,64,36,17,30.36,30.32,30.26,10,10,10,12,5,16,0.00,0,,338
2011-10-23,71,48,26,27,19,12,69,37,13,30.38,30.33,30.28,10,10,10,13,4,16,0.00,0,,347
2011-10-24,69,48,28,27,21,9,64,37,18,30.37,30.32,30.21,10,10,10,21,7,25,0.00,0,,300
2011-10-25,66,50,35,36,27,19,54,40,28,30.26,30.22,30.14,10,10,10,21,4,28,0.00,3,,288
2011-10-26,50,42,33,45,38,30,87,82,76,30.16,30.06,29.95,10,9,1,20,7,28,0.64,7,,155
2011-10-27,41,36,32,36,31,27,87,83,70,30.19,30.14,30.07,10,10,0,9,1,,0.15,8,,170
2011-10-28,51,40,30,34,28,18,100,70,28,30.38,30.32,30.23,10,9,0,8,2,,0.00,3,,2
2011-10-29,57,40,24,30,23,9,93,58,19,30.35,30.26,30.15,10,10,10,12,3,,0.00,0,,277
2011-10-30,59,42,26,30,25,21,86,58,23,30.36,30.32,30.24,10,10,10,10,4,,0.00,0,,333
2011-10-31,62,43,24,30,26,19,86,54,27,30.37,30.28,30.18,10,10,10,20,4,24,0.00,0,,288